sensor_id;sensor_type;location;lat;lon;timestamp;temperature;humidity
52439;DHT22;73188;52.948;6.012;2023-11-18T00:01:07;4.30;99.90
52439;DHT22;73188;52.948;6.012;2023-11-18T00:11:34;4.50;99.90
52439;DHT22;73188;52.948;6.012;2023-11-18T00:21:59;5.50;99.90
52439;DHT22;73188;52.948;6.012;2023-11-18T00:32:25;5.10;99.90
52439;DHT22;73188;52.948;6.012;2023-11-18T00:42:51;4.70;99.90
52439;DHT22;73188;52.948;6.012;2023-11-18T00:53:17;4.80;99.90
52439;DHT22;73188;52.948;6.012;2023-11-18T01:03:43;4.90;99.90
52439;DHT22;73188;52.948;6.012;2023-11-18T01:14:10;4.50;99.90
52439;DHT22;73188;52.948;6.012;2023-11-18T01:24:37;4.60;99.90
52439;DHT22;73188;52.948;6.012;2023-11-18T01:35:03;4.60;99.90
52439;DHT22;73188;52.948;6.012;2023-11-18T01:45:29;4.80;99.90
52439;DHT22;73188;52.948;6.012;2023-11-18T01:55:56;5.00;99.90
52439;DHT22;73188;52.948;6.012;2023-11-18T02:06:23;5.20;99.90
52439;DHT22;73188;52.948;6.012;2023-11-18T02:16:50;5.50;99.90
52439;DHT22;73188;52.948;6.012;2023-11-18T02:27:18;5.30;99.90
52439;DHT22;73188;52.948;6.012;2023-11-18T02:37:50;5.10;99.90
52439;DHT22;73188;52.948;6.012;2023-11-18T02:48:17;5.40;99.90
52439;DHT22;73188;52.948;6.012;2023-11-18T02:58:43;5.40;99.90
52439;DHT22;73188;52.948;6.012;2023-11-18T03:09:09;5.40;99.90
52439;DHT22;73188;52.948;6.012;2023-11-18T03:19:36;5.40;99.90
52439;DHT22;73188;52.948;6.012;2023-11-18T03:30:02;5.80;99.90
52439;DHT22;73188;52.948;6.012;2023-11-18T03:40:28;5.50;99.90
52439;DHT22;73188;52.948;6.012;2023-11-18T03:50:54;5.30;99.90
52439;DHT22;73188;52.948;6.012;2023-11-18T04:01:24;5.60;99.90
52439;DHT22;73188;52.948;6.012;2023-11-18T04:11:53;6.60;99.90
52439;DHT22;73188;52.948;6.012;2023-11-18T04:22:19;6.40;99.90
52439;DHT22;73188;52.948;6.012;2023-11-18T04:32:45;7.00;99.90
52439;DHT22;73188;52.948;6.012;2023-11-18T04:43:14;6.10;99.90
52439;DHT22;73188;52.948;6.012;2023-11-18T04:53:40;6.60;99.90
52439;DHT22;73188;52.948;6.012;2023-11-18T05:04:06;7.60;99.90
52439;DHT22;73188;52.948;6.012;2023-11-18T05:14:33;6.30;99.90
52439;DHT22;73188;52.948;6.012;2023-11-18T05:24:59;7.70;99.90
52439;DHT22;73188;52.948;6.012;2023-11-18T05:35:25;6.60;99.90
52439;DHT22;73188;52.948;6.012;2023-11-18T05:45:53;6.80;99.90
52439;DHT22;73188;52.948;6.012;2023-11-18T05:56:38;6.80;99.90
52439;DHT22;73188;52.948;6.012;2023-11-18T06:07:04;7.80;99.90
52439;DHT22;73188;52.948;6.012;2023-11-18T06:17:30;6.90;99.90
52439;DHT22;73188;52.948;6.012;2023-11-18T06:27:56;6.50;99.90
52439;DHT22;73188;52.948;6.012;2023-11-18T06:38:23;7.60;99.90
52439;DHT22;73188;52.948;6.012;2023-11-18T06:48:53;6.90;99.90
52439;DHT22;73188;52.948;6.012;2023-11-18T06:59:20;6.90;99.90
52439;DHT22;73188;52.948;6.012;2023-11-18T07:09:45;7.00;99.90
52439;DHT22;73188;52.948;6.012;2023-11-18T07:20:12;7.80;99.90
52439;DHT22;73188;52.948;6.012;2023-11-18T07:30:38;8.40;99.90
52439;DHT22;73188;52.948;6.012;2023-11-18T07:41:04;8.20;99.90
52439;DHT22;73188;52.948;6.012;2023-11-18T07:51:33;7.50;99.90
52439;DHT22;73188;52.948;6.012;2023-11-18T08:01:59;8.00;99.90
52439;DHT22;73188;52.948;6.012;2023-11-18T08:12:28;7.90;99.90
52439;DHT22;73188;52.948;6.012;2023-11-18T08:22:54;8.70;99.90
52439;DHT22;73188;52.948;6.012;2023-11-18T08:33:21;8.00;99.90
52439;DHT22;73188;52.948;6.012;2023-11-18T08:43:49;8.60;99.90
52439;DHT22;73188;52.948;6.012;2023-11-18T08:54:16;9.20;99.90
52439;DHT22;73188;52.948;6.012;2023-11-18T09:04:48;8.50;99.90
52439;DHT22;73188;52.948;6.012;2023-11-18T09:15:14;9.20;99.90
52439;DHT22;73188;52.948;6.012;2023-11-18T09:25:47;9.30;99.90
52439;DHT22;73188;52.948;6.012;2023-11-18T09:36:13;9.50;99.90
52439;DHT22;73188;52.948;6.012;2023-11-18T09:46:41;9.80;99.90
52439;DHT22;73188;52.948;6.012;2023-11-18T09:57:19;9.50;99.90
52439;DHT22;73188;52.948;6.012;2023-11-18T10:07:52;8.70;99.90
52439;DHT22;73188;52.948;6.012;2023-11-18T10:18:18;9.80;99.90
52439;DHT22;73188;52.948;6.012;2023-11-18T10:28:48;9.40;99.90
52439;DHT22;73188;52.948;6.012;2023-11-18T10:39:15;8.50;99.90
52439;DHT22;73188;52.948;6.012;2023-11-18T10:49:41;9.70;99.90
52439;DHT22;73188;52.948;6.012;2023-11-18T11:00:08;8.60;99.90
52439;DHT22;73188;52.948;6.012;2023-11-18T11:10:44;8.60;99.90
52439;DHT22;73188;52.948;6.012;2023-11-18T11:21:26;9.60;99.90
52439;DHT22;73188;52.948;6.012;2023-11-18T11:32:21;9.70;99.90
52439;DHT22;73188;52.948;6.012;2023-11-18T11:42:53;7.60;99.90
52439;DHT22;73188;52.948;6.012;2023-11-18T11:53:24;9.30;99.90
52439;DHT22;73188;52.948;6.012;2023-11-18T12:03:52;9.30;99.90
52439;DHT22;73188;52.948;6.012;2023-11-18T12:14:23;8.80;99.90
52439;DHT22;73188;52.948;6.012;2023-11-18T12:57:37;8.60;99.90
52439;DHT22;73188;52.948;6.012;2023-11-18T13:08:04;8.60;99.90
52439;DHT22;73188;52.948;6.012;2023-11-18T13:18:42;9.60;99.90
52439;DHT22;73188;52.948;6.012;2023-11-18T13:29:14;9.20;99.90
52439;DHT22;73188;52.948;6.012;2023-11-18T13:39:41;9.60;99.90
52439;DHT22;73188;52.948;6.012;2023-11-18T13:50:11;9.60;99.90
52439;DHT22;73188;52.948;6.012;2023-11-18T14:00:40;8.90;99.90
52439;DHT22;73188;52.948;6.012;2023-11-18T14:11:06;9.80;99.90
52439;DHT22;73188;52.948;6.012;2023-11-18T14:21:34;10.00;99.90
52439;DHT22;73188;52.948;6.012;2023-11-18T14:32:01;10.10;99.90
52439;DHT22;73188;52.948;6.012;2023-11-18T14:42:27;10.30;99.90
52439;DHT22;73188;52.948;6.012;2023-11-18T14:52:53;10.00;99.90
52439;DHT22;73188;52.948;6.012;2023-11-18T15:03:25;9.80;99.90
52439;DHT22;73188;52.948;6.012;2023-11-18T15:13:51;10.20;99.90
52439;DHT22;73188;52.948;6.012;2023-11-18T15:24:21;10.30;99.90
52439;DHT22;73188;52.948;6.012;2023-11-18T15:34:48;10.20;99.90
52439;DHT22;73188;52.948;6.012;2023-11-18T15:45:19;9.40;99.90
52439;DHT22;73188;52.948;6.012;2023-11-18T15:55:46;9.40;99.90
52439;DHT22;73188;52.948;6.012;2023-11-18T16:06:12;9.30;99.90
52439;DHT22;73188;52.948;6.012;2023-11-18T16:16:39;9.90;99.90
52439;DHT22;73188;52.948;6.012;2023-11-18T16:27:05;10.40;99.90
52439;DHT22;73188;52.948;6.012;2023-11-18T16:37:31;9.50;99.90
52439;DHT22;73188;52.948;6.012;2023-11-18T16:47:57;10.50;99.90
52439;DHT22;73188;52.948;6.012;2023-11-18T16:58:23;9.50;99.90
52439;DHT22;73188;52.948;6.012;2023-11-18T17:08:50;10.70;99.90
52439;DHT22;73188;52.948;6.012;2023-11-18T17:19:16;10.10;99.90
52439;DHT22;73188;52.948;6.012;2023-11-18T17:29:42;10.10;99.90
52439;DHT22;73188;52.948;6.012;2023-11-18T17:40:08;11.20;99.90
52439;DHT22;73188;52.948;6.012;2023-11-18T17:50:36;10.00;99.90
52439;DHT22;73188;52.948;6.012;2023-11-18T18:01:05;11.50;99.90
52439;DHT22;73188;52.948;6.012;2023-11-18T18:11:32;10.10;99.90
52439;DHT22;73188;52.948;6.012;2023-11-18T18:21:57;9.80;99.90
52439;DHT22;73188;52.948;6.012;2023-11-18T18:32:23;11.00;99.90
52439;DHT22;73188;52.948;6.012;2023-11-18T18:42:49;10.80;99.90
52439;DHT22;73188;52.948;6.012;2023-11-18T18:53:15;10.70;99.90
52439;DHT22;73188;52.948;6.012;2023-11-18T19:03:41;11.80;99.90
52439;DHT22;73188;52.948;6.012;2023-11-18T19:26:20;11.70;99.90
52439;DHT22;73188;52.948;6.012;2023-11-18T19:37:26;10.70;99.90
52439;DHT22;73188;52.948;6.012;2023-11-18T19:48:20;12.00;99.90
52439;DHT22;73188;52.948;6.012;2023-11-18T20:10:42;11.70;99.90
52439;DHT22;73188;52.948;6.012;2023-11-18T20:22:01;12.40;99.90
52439;DHT22;73188;52.948;6.012;2023-11-18T20:32:38;12.20;99.90
52439;DHT22;73188;52.948;6.012;2023-11-18T20:54:22;11.80;99.90
52439;DHT22;73188;52.948;6.012;2023-11-18T21:05:18;11.50;99.90
52439;DHT22;73188;52.948;6.012;2023-11-18T21:15:52;12.90;99.90
52439;DHT22;73188;52.948;6.012;2023-11-18T21:26:21;12.50;99.90
52439;DHT22;73188;52.948;6.012;2023-11-18T21:36:57;13.20;99.90
52439;DHT22;73188;52.948;6.012;2023-11-18T21:58:38;13.40;99.90
52439;DHT22;73188;52.948;6.012;2023-11-18T22:20:19;13.90;99.90
52439;DHT22;73188;52.948;6.012;2023-11-18T22:30:50;14.50;99.90
52439;DHT22;73188;52.948;6.012;2023-11-18T22:41:15;15.50;99.90
52439;DHT22;73188;52.948;6.012;2023-11-18T22:51:41;15.80;99.90
52439;DHT22;73188;52.948;6.012;2023-11-18T23:02:07;16.00;99.90
52439;DHT22;73188;52.948;6.012;2023-11-18T23:12:36;16.40;99.90
52439;DHT22;73188;52.948;6.012;2023-11-18T23:23:02;16.10;99.90
52439;DHT22;73188;52.948;6.012;2023-11-18T23:33:28;16.50;99.90
52439;DHT22;73188;52.948;6.012;2023-11-18T23:43:55;16.10;99.90
52439;DHT22;73188;52.948;6.012;2023-11-18T23:54:21;16.70;99.90
